sensor_id;sensor_type;location;lat;lon;timestamp;P1;durP1;ratioP1;P2;durP2;ratioP2
72524;SDS011;60547;48.502;8.996;2022-11-20T00:00:42;4.95;;;2.30;;
72524;SDS011;60547;48.502;8.996;2022-11-20T00:03:08;5.55;;;2.50;;
72524;SDS011;60547;48.502;8.996;2022-11-20T00:05:35;5.75;;;2.40;;
72524;SDS011;60547;48.502;8.996;2022-11-20T00:08:01;5.13;;;2.10;;
72524;SDS011;60547;48.502;8.996;2022-11-20T00:10:26;6.85;;;2.65;;
72524;SDS011;60547;48.502;8.996;2022-11-20T00:12:52;5.60;;;2.38;;
72524;SDS011;60547;48.502;8.996;2022-11-20T00:15:17;5.30;;;2.80;;
72524;SDS011;60547;48.502;8.996;2022-11-20T00:17:43;4.13;;;2.40;;
72524;SDS011;60547;48.502;8.996;2022-11-20T00:20:08;6.63;;;2.45;;
72524;SDS011;60547;48.502;8.996;2022-11-20T00:22:34;6.90;;;2.75;;
72524;SDS011;60547;48.502;8.996;2022-11-20T00:25:00;5.75;;;2.83;;
72524;SDS011;60547;48.502;8.996;2022-11-20T00:27:25;5.28;;;2.80;;
72524;SDS011;60547;48.502;8.996;2022-11-20T00:29:50;5.70;;;2.83;;
72524;SDS011;60547;48.502;8.996;2022-11-20T00:32:16;5.78;;;2.90;;
72524;SDS011;60547;48.502;8.996;2022-11-20T00:34:41;5.32;;;2.65;;
72524;SDS011;60547;48.502;8.996;2022-11-20T00:37:07;5.63;;;3.15;;
72524;SDS011;60547;48.502;8.996;2022-11-20T00:39:32;5.85;;;3.00;;
72524;SDS011;60547;48.502;8.996;2022-11-20T00:41:58;6.47;;;2.83;;
72524;SDS011;60547;48.502;8.996;2022-11-20T00:44:23;5.55;;;3.03;;
72524;SDS011;60547;48.502;8.996;2022-11-20T00:46:49;6.20;;;3.10;;
72524;SDS011;60547;48.502;8.996;2022-11-20T00:49:14;6.43;;;3.22;;
72524;SDS011;60547;48.502;8.996;2022-11-20T00:51:39;7.88;;;3.15;;
72524;SDS011;60547;48.502;8.996;2022-11-20T00:54:05;7.72;;;3.20;;
72524;SDS011;60547;48.502;8.996;2022-11-20T00:56:30;5.55;;;3.22;;
72524;SDS011;60547;48.502;8.996;2022-11-20T00:58:58;4.78;;;3.10;;
72524;SDS011;60547;48.502;8.996;2022-11-20T01:01:25;5.50;;;2.70;;
72524;SDS011;60547;48.502;8.996;2022-11-20T01:03:52;6.85;;;3.35;;
72524;SDS011;60547;48.502;8.996;2022-11-20T01:08:47;6.43;;;3.10;;
72524;SDS011;60547;48.502;8.996;2022-11-20T01:11:14;6.30;;;3.42;;
72524;SDS011;60547;48.502;8.996;2022-11-20T01:13:44;5.90;;;3.28;;
72524;SDS011;60547;48.502;8.996;2022-11-20T01:16:15;5.40;;;2.92;;
72524;SDS011;60547;48.502;8.996;2022-11-20T01:18:43;6.40;;;2.92;;
72524;SDS011;60547;48.502;8.996;2022-11-20T01:21:53;5.72;;;2.97;;
72524;SDS011;60547;48.502;8.996;2022-11-20T01:24:01;7.22;;;3.33;;
72524;SDS011;60547;48.502;8.996;2022-11-20T01:26:28;6.80;;;3.17;;
72524;SDS011;60547;48.502;8.996;2022-11-20T01:28:55;5.32;;;3.03;;
72524;SDS011;60547;48.502;8.996;2022-11-20T01:31:24;7.03;;;3.25;;
72524;SDS011;60547;48.502;8.996;2022-11-20T01:33:53;5.10;;;2.72;;
72524;SDS011;60547;48.502;8.996;2022-11-20T01:36:21;5.50;;;3.00;;
72524;SDS011;60547;48.502;8.996;2022-11-20T01:38:50;5.90;;;2.90;;
72524;SDS011;60547;48.502;8.996;2022-11-20T01:41:17;6.53;;;3.10;;
72524;SDS011;60547;48.502;8.996;2022-11-20T01:44:02;5.50;;;2.90;;
72524;SDS011;60547;48.502;8.996;2022-11-20T01:46:28;5.25;;;2.80;;
72524;SDS011;60547;48.502;8.996;2022-11-20T01:48:59;6.05;;;2.80;;
72524;SDS011;60547;48.502;8.996;2022-11-20T01:51:41;4.88;;;2.92;;
72524;SDS011;60547;48.502;8.996;2022-11-20T01:54:11;5.20;;;3.50;;
72524;SDS011;60547;48.502;8.996;2022-11-20T01:56:41;6.03;;;3.25;;
72524;SDS011;60547;48.502;8.996;2022-11-20T01:59:09;5.55;;;2.75;;
72524;SDS011;60547;48.502;8.996;2022-11-20T02:01:37;5.93;;;3.03;;
72524;SDS011;60547;48.502;8.996;2022-11-20T02:04:04;5.10;;;2.72;;
72524;SDS011;60547;48.502;8.996;2022-11-20T02:06:33;5.15;;;2.90;;
72524;SDS011;60547;48.502;8.996;2022-11-20T02:09:04;5.93;;;3.17;;
72524;SDS011;60547;48.502;8.996;2022-11-20T02:11:30;4.88;;;2.83;;
72524;SDS011;60547;48.502;8.996;2022-11-20T02:13:56;5.28;;;2.75;;
72524;SDS011;60547;48.502;8.996;2022-11-20T02:16:24;4.90;;;2.85;;
72524;SDS011;60547;48.502;8.996;2022-11-20T02:18:51;5.00;;;2.95;;
72524;SDS011;60547;48.502;8.996;2022-11-20T02:21:27;4.47;;;2.50;;
72524;SDS011;60547;48.502;8.996;2022-11-20T02:26:28;4.28;;;2.35;;
72524;SDS011;60547;48.502;8.996;2022-11-20T02:28:55;5.22;;;2.50;;
72524;SDS011;60547;48.502;8.996;2022-11-20T02:31:21;7.75;;;2.85;;
72524;SDS011;60547;48.502;8.996;2022-11-20T02:33:46;4.97;;;2.35;;
72524;SDS011;60547;48.502;8.996;2022-11-20T02:36:13;5.25;;;2.55;;
72524;SDS011;60547;48.502;8.996;2022-11-20T02:38:40;4.65;;;2.53;;
72524;SDS011;60547;48.502;8.996;2022-11-20T02:41:07;4.40;;;2.55;;
72524;SDS011;60547;48.502;8.996;2022-11-20T02:43:32;5.10;;;2.85;;
72524;SDS011;60547;48.502;8.996;2022-11-20T02:45:57;4.63;;;2.33;;
72524;SDS011;60547;48.502;8.996;2022-11-20T02:48:23;5.40;;;2.50;;
72524;SDS011;60547;48.502;8.996;2022-11-20T02:50:48;5.65;;;2.50;;
72524;SDS011;60547;48.502;8.996;2022-11-20T02:53:14;4.22;;;2.42;;
72524;SDS011;60547;48.502;8.996;2022-11-20T02:55:39;5.38;;;2.28;;
72524;SDS011;60547;48.502;8.996;2022-11-20T02:58:05;5.40;;;2.00;;
72524;SDS011;60547;48.502;8.996;2022-11-20T03:00:30;4.05;;;2.25;;
72524;SDS011;60547;48.502;8.996;2022-11-20T03:02:56;3.85;;;2.35;;
72524;SDS011;60547;48.502;8.996;2022-11-20T03:05:22;3.83;;;1.80;;
72524;SDS011;60547;48.502;8.996;2022-11-20T03:07:47;4.03;;;1.90;;
72524;SDS011;60547;48.502;8.996;2022-11-20T03:10:13;4.07;;;2.08;;
72524;SDS011;60547;48.502;8.996;2022-11-20T03:12:38;3.63;;;1.98;;
72524;SDS011;60547;48.502;8.996;2022-11-20T03:15:04;5.47;;;2.20;;
72524;SDS011;60547;48.502;8.996;2022-11-20T03:17:29;4.28;;;2.10;;
72524;SDS011;60547;48.502;8.996;2022-11-20T03:19:55;3.88;;;2.15;;
72524;SDS011;60547;48.502;8.996;2022-11-20T03:22:21;3.03;;;1.83;;
72524;SDS011;60547;48.502;8.996;2022-11-20T03:24:46;4.00;;;1.92;;
72524;SDS011;60547;48.502;8.996;2022-11-20T03:27:12;4.30;;;2.05;;
72524;SDS011;60547;48.502;8.996;2022-11-20T03:29:37;3.75;;;1.90;;
72524;SDS011;60547;48.502;8.996;2022-11-20T03:32:03;3.75;;;2.05;;
72524;SDS011;60547;48.502;8.996;2022-11-20T03:34:28;4.70;;;1.83;;
72524;SDS011;60547;48.502;8.996;2022-11-20T03:36:54;3.60;;;1.75;;
72524;SDS011;60547;48.502;8.996;2022-11-20T03:39:19;4.15;;;1.90;;
72524;SDS011;60547;48.502;8.996;2022-11-20T03:41:44;3.60;;;2.30;;
72524;SDS011;60547;48.502;8.996;2022-11-20T03:44:11;4.63;;;1.65;;
72524;SDS011;60547;48.502;8.996;2022-11-20T03:46:36;4.10;;;2.03;;
72524;SDS011;60547;48.502;8.996;2022-11-20T03:49:02;3.35;;;1.60;;
72524;SDS011;60547;48.502;8.996;2022-11-20T03:51:29;3.40;;;1.65;;
72524;SDS011;60547;48.502;8.996;2022-11-20T03:53:58;4.70;;;1.83;;
72524;SDS011;60547;48.502;8.996;2022-11-20T03:56:26;4.53;;;1.80;;
72524;SDS011;60547;48.502;8.996;2022-11-20T03:58:54;3.78;;;1.75;;
72524;SDS011;60547;48.502;8.996;2022-11-20T04:01:27;3.80;;;1.70;;
72524;SDS011;60547;48.502;8.996;2022-11-20T04:03:55;2.80;;;1.38;;
72524;SDS011;60547;48.502;8.996;2022-11-20T04:06:29;3.38;;;1.90;;
72524;SDS011;60547;48.502;8.996;2022-11-20T04:08:58;3.83;;;1.65;;
72524;SDS011;60547;48.502;8.996;2022-11-20T04:11:28;3.55;;;1.67;;
72524;SDS011;60547;48.502;8.996;2022-11-20T04:13:56;3.13;;;1.60;;
72524;SDS011;60547;48.502;8.996;2022-11-20T04:16:24;3.47;;;1.70;;
72524;SDS011;60547;48.502;8.996;2022-11-20T04:18:51;3.72;;;1.55;;
72524;SDS011;60547;48.502;8.996;2022-11-20T04:21:18;4.43;;;1.73;;
72524;SDS011;60547;48.502;8.996;2022-11-20T04:23:43;3.60;;;1.60;;
72524;SDS011;60547;48.502;8.996;2022-11-20T04:26:09;3.20;;;1.65;;
72524;SDS011;60547;48.502;8.996;2022-11-20T04:28:36;3.92;;;1.80;;
72524;SDS011;60547;48.502;8.996;2022-11-20T04:31:06;3.88;;;1.63;;
72524;SDS011;60547;48.502;8.996;2022-11-20T04:33:33;4.50;;;1.90;;
72524;SDS011;60547;48.502;8.996;2022-11-20T04:36:04;3.85;;;1.58;;
72524;SDS011;60547;48.502;8.996;2022-11-20T04:38:40;2.80;;;1.38;;
72524;SDS011;60547;48.502;8.996;2022-11-20T04:41:15;5.18;;;1.80;;
72524;SDS011;60547;48.502;8.996;2022-11-20T04:43:45;3.60;;;1.60;;
72524;SDS011;60547;48.502;8.996;2022-11-20T04:46:13;4.22;;;1.40;;
72524;SDS011;60547;48.502;8.996;2022-11-20T04:48:38;3.10;;;1.45;;
72524;SDS011;60547;48.502;8.996;2022-11-20T04:51:04;3.90;;;1.83;;
72524;SDS011;60547;48.502;8.996;2022-11-20T04:53:29;3.50;;;1.40;;
72524;SDS011;60547;48.502;8.996;2022-11-20T04:58:47;3.70;;;1.50;;
72524;SDS011;60547;48.502;8.996;2022-11-20T05:01:16;3.92;;;1.55;;
72524;SDS011;60547;48.502;8.996;2022-11-20T05:03:44;4.15;;;1.67;;
72524;SDS011;60547;48.502;8.996;2022-11-20T05:06:13;6.50;;;2.72;;
72524;SDS011;60547;48.502;8.996;2022-11-20T05:13:36;3.83;;;1.77;;
72524;SDS011;60547;48.502;8.996;2022-11-20T05:16:06;3.67;;;1.67;;
72524;SDS011;60547;48.502;8.996;2022-11-20T05:18:33;3.67;;;2.40;;
72524;SDS011;60547;48.502;8.996;2022-11-20T05:20:59;4.72;;;2.70;;
72524;SDS011;60547;48.502;8.996;2022-11-20T05:23:26;4.35;;;2.53;;
72524;SDS011;60547;48.502;8.996;2022-11-20T05:25:55;4.40;;;2.45;;
72524;SDS011;60547;48.502;8.996;2022-11-20T05:28:22;4.70;;;2.85;;
72524;SDS011;60547;48.502;8.996;2022-11-20T05:30:48;4.45;;;3.00;;
72524;SDS011;60547;48.502;8.996;2022-11-20T05:33:14;3.90;;;2.47;;
72524;SDS011;60547;48.502;8.996;2022-11-20T05:35:40;4.85;;;2.30;;
72524;SDS011;60547;48.502;8.996;2022-11-20T05:38:06;4.57;;;2.05;;
72524;SDS011;60547;48.502;8.996;2022-11-20T05:40:31;3.22;;;1.83;;
72524;SDS011;60547;48.502;8.996;2022-11-20T05:42:57;2.97;;;1.60;;
72524;SDS011;60547;48.502;8.996;2022-11-20T05:45:22;4.97;;;1.73;;
72524;SDS011;60547;48.502;8.996;2022-11-20T05:47:48;4.38;;;1.70;;
72524;SDS011;60547;48.502;8.996;2022-11-20T05:50:13;5.25;;;1.67;;
72524;SDS011;60547;48.502;8.996;2022-11-20T05:52:39;2.85;;;1.50;;
72524;SDS011;60547;48.502;8.996;2022-11-20T05:55:05;4.80;;;1.90;;
72524;SDS011;60547;48.502;8.996;2022-11-20T05:57:31;10.63;;;4.97;;
72524;SDS011;60547;48.502;8.996;2022-11-20T05:59:57;13.32;;;5.47;;
72524;SDS011;60547;48.502;8.996;2022-11-20T06:02:22;24.40;;;10.27;;
72524;SDS011;60547;48.502;8.996;2022-11-20T06:04:50;8.98;;;3.65;;
72524;SDS011;60547;48.502;8.996;2022-11-20T06:07:16;4.20;;;1.98;;
72524;SDS011;60547;48.502;8.996;2022-11-20T06:09:41;3.50;;;1.67;;
72524;SDS011;60547;48.502;8.996;2022-11-20T06:12:07;2.97;;;1.50;;
72524;SDS011;60547;48.502;8.996;2022-11-20T06:14:33;2.95;;;1.45;;
72524;SDS011;60547;48.502;8.996;2022-11-20T06:16:58;4.03;;;1.58;;
72524;SDS011;60547;48.502;8.996;2022-11-20T06:19:24;2.75;;;1.70;;
72524;SDS011;60547;48.502;8.996;2022-11-20T06:21:49;3.60;;;1.60;;
72524;SDS011;60547;48.502;8.996;2022-11-20T06:24:15;4.65;;;2.40;;
72524;SDS011;60547;48.502;8.996;2022-11-20T06:26:41;7.63;;;4.10;;
72524;SDS011;60547;48.502;8.996;2022-11-20T06:29:06;5.93;;;3.65;;
72524;SDS011;60547;48.502;8.996;2022-11-20T06:31:32;5.45;;;3.33;;
72524;SDS011;60547;48.502;8.996;2022-11-20T06:34:00;5.35;;;3.10;;
72524;SDS011;60547;48.502;8.996;2022-11-20T06:36:26;3.60;;;2.33;;
72524;SDS011;60547;48.502;8.996;2022-11-20T06:38:51;3.55;;;2.10;;
72524;SDS011;60547;48.502;8.996;2022-11-20T06:41:18;2.95;;;1.80;;
72524;SDS011;60547;48.502;8.996;2022-11-20T06:43:45;2.92;;;1.65;;
72524;SDS011;60547;48.502;8.996;2022-11-20T06:46:11;5.45;;;2.08;;
72524;SDS011;60547;48.502;8.996;2022-11-20T06:48:38;3.42;;;1.60;;
72524;SDS011;60547;48.502;8.996;2022-11-20T06:51:04;3.30;;;1.50;;
72524;SDS011;60547;48.502;8.996;2022-11-20T06:53:31;5.00;;;1.65;;
72524;SDS011;60547;48.502;8.996;2022-11-20T06:55:56;3.00;;;1.50;;
72524;SDS011;60547;48.502;8.996;2022-11-20T06:58:29;3.13;;;1.50;;
72524;SDS011;60547;48.502;8.996;2022-11-20T07:03:24;2.97;;;1.40;;
72524;SDS011;60547;48.502;8.996;2022-11-20T07:05:50;2.88;;;1.42;;
72524;SDS011;60547;48.502;8.996;2022-11-20T07:08:15;3.03;;;1.38;;
72524;SDS011;60547;48.502;8.996;2022-11-20T07:10:40;3.20;;;1.35;;
72524;SDS011;60547;48.502;8.996;2022-11-20T07:13:06;2.70;;;1.35;;
72524;SDS011;60547;48.502;8.996;2022-11-20T07:15:32;3.30;;;1.50;;
72524;SDS011;60547;48.502;8.996;2022-11-20T07:18:01;5.43;;;2.38;;
72524;SDS011;60547;48.502;8.996;2022-11-20T07:20:26;5.28;;;2.50;;
72524;SDS011;60547;48.502;8.996;2022-11-20T07:22:53;3.65;;;1.88;;
72524;SDS011;60547;48.502;8.996;2022-11-20T07:25:19;6.25;;;2.05;;
72524;SDS011;60547;48.502;8.996;2022-11-20T07:27:45;3.88;;;1.45;;
72524;SDS011;60547;48.502;8.996;2022-11-20T07:30:10;3.67;;;1.60;;
72524;SDS011;60547;48.502;8.996;2022-11-20T07:32:36;4.00;;;1.75;;
72524;SDS011;60547;48.502;8.996;2022-11-20T07:35:02;4.47;;;1.90;;
72524;SDS011;60547;48.502;8.996;2022-11-20T07:37:27;3.42;;;1.80;;
72524;SDS011;60547;48.502;8.996;2022-11-20T07:39:53;3.22;;;1.70;;
72524;SDS011;60547;48.502;8.996;2022-11-20T07:42:18;4.50;;;1.85;;
72524;SDS011;60547;48.502;8.996;2022-11-20T07:44:43;3.63;;;1.75;;
72524;SDS011;60547;48.502;8.996;2022-11-20T07:47:09;3.95;;;1.90;;
72524;SDS011;60547;48.502;8.996;2022-11-20T07:49:34;3.50;;;1.63;;
72524;SDS011;60547;48.502;8.996;2022-11-20T07:52:00;4.55;;;1.98;;
72524;SDS011;60547;48.502;8.996;2022-11-20T07:54:25;4.90;;;1.90;;
72524;SDS011;60547;48.502;8.996;2022-11-20T07:56:50;3.53;;;1.67;;
72524;SDS011;60547;48.502;8.996;2022-11-20T07:59:16;4.28;;;1.70;;
72524;SDS011;60547;48.502;8.996;2022-11-20T08:01:42;4.25;;;1.33;;
72524;SDS011;60547;48.502;8.996;2022-11-20T08:04:08;3.95;;;1.90;;
72524;SDS011;60547;48.502;8.996;2022-11-20T08:06:34;4.20;;;2.20;;
72524;SDS011;60547;48.502;8.996;2022-11-20T08:09:00;4.47;;;2.10;;
72524;SDS011;60547;48.502;8.996;2022-11-20T08:11:25;3.10;;;1.40;;
72524;SDS011;60547;48.502;8.996;2022-11-20T08:14:09;4.22;;;1.75;;
72524;SDS011;60547;48.502;8.996;2022-11-20T08:16:42;3.75;;;1.80;;
72524;SDS011;60547;48.502;8.996;2022-11-20T08:19:12;4.07;;;1.80;;
72524;SDS011;60547;48.502;8.996;2022-11-20T08:21:38;3.50;;;1.67;;
72524;SDS011;60547;48.502;8.996;2022-11-20T08:24:05;4.40;;;2.00;;
72524;SDS011;60547;48.502;8.996;2022-11-20T08:26:31;3.72;;;2.03;;
72524;SDS011;60547;48.502;8.996;2022-11-20T08:28:57;3.78;;;1.63;;
72524;SDS011;60547;48.502;8.996;2022-11-20T08:31:23;5.20;;;1.98;;
72524;SDS011;60547;48.502;8.996;2022-11-20T08:33:50;5.18;;;2.10;;
72524;SDS011;60547;48.502;8.996;2022-11-20T08:36:16;3.50;;;1.77;;
72524;SDS011;60547;48.502;8.996;2022-11-20T08:38:46;4.65;;;2.20;;
72524;SDS011;60547;48.502;8.996;2022-11-20T08:41:13;3.53;;;1.73;;
72524;SDS011;60547;48.502;8.996;2022-11-20T08:44:25;4.07;;;2.03;;
72524;SDS011;60547;48.502;8.996;2022-11-20T08:46:43;3.72;;;1.95;;
72524;SDS011;60547;48.502;8.996;2022-11-20T08:49:11;3.60;;;1.58;;
72524;SDS011;60547;48.502;8.996;2022-11-20T08:51:38;3.58;;;1.70;;
72524;SDS011;60547;48.502;8.996;2022-11-20T08:54:03;3.45;;;1.70;;
72524;SDS011;60547;48.502;8.996;2022-11-20T08:56:29;3.45;;;1.85;;
72524;SDS011;60547;48.502;8.996;2022-11-20T08:58:55;2.65;;;1.48;;
72524;SDS011;60547;48.502;8.996;2022-11-20T09:01:21;4.18;;;1.60;;
72524;SDS011;60547;48.502;8.996;2022-11-20T09:03:48;3.50;;;1.85;;
72524;SDS011;60547;48.502;8.996;2022-11-20T09:06:14;4.75;;;1.90;;
72524;SDS011;60547;48.502;8.996;2022-11-20T09:08:40;3.30;;;1.50;;
72524;SDS011;60547;48.502;8.996;2022-11-20T09:11:06;3.00;;;1.55;;
72524;SDS011;60547;48.502;8.996;2022-11-20T09:13:32;4.05;;;1.80;;
72524;SDS011;60547;48.502;8.996;2022-11-20T09:16:00;9.98;;;4.68;;
72524;SDS011;60547;48.502;8.996;2022-11-20T09:18:28;5.70;;;2.90;;
72524;SDS011;60547;48.502;8.996;2022-11-20T09:20:56;4.22;;;2.05;;
72524;SDS011;60547;48.502;8.996;2022-11-20T09:23:25;3.80;;;2.00;;
72524;SDS011;60547;48.502;8.996;2022-11-20T09:25:51;2.80;;;1.50;;
72524;SDS011;60547;48.502;8.996;2022-11-20T09:28:17;4.22;;;1.80;;
72524;SDS011;60547;48.502;8.996;2022-11-20T09:30:43;4.10;;;1.88;;
72524;SDS011;60547;48.502;8.996;2022-11-20T09:33:09;3.20;;;1.50;;
72524;SDS011;60547;48.502;8.996;2022-11-20T09:35:37;3.60;;;1.60;;
72524;SDS011;60547;48.502;8.996;2022-11-20T09:38:06;3.33;;;1.42;;
72524;SDS011;60547;48.502;8.996;2022-11-20T09:40:32;3.90;;;1.65;;
72524;SDS011;60547;48.502;8.996;2022-11-20T09:54:40;3.15;;;1.55;;
72524;SDS011;60547;48.502;8.996;2022-11-20T09:57:12;3.75;;;1.50;;
72524;SDS011;60547;48.502;8.996;2022-11-20T09:59:49;3.60;;;1.40;;
72524;SDS011;60547;48.502;8.996;2022-11-20T10:04:46;3.72;;;1.40;;
72524;SDS011;60547;48.502;8.996;2022-11-20T10:07:18;3.92;;;1.70;;
72524;SDS011;60547;48.502;8.996;2022-11-20T10:09:55;3.00;;;1.55;;
72524;SDS011;60547;48.502;8.996;2022-11-20T10:26:16;3.33;;;1.50;;
72524;SDS011;60547;48.502;8.996;2022-11-20T10:30:57;2.75;;;1.15;;
72524;SDS011;60547;48.502;8.996;2022-11-20T10:33:25;3.60;;;1.42;;
72524;SDS011;60547;48.502;8.996;2022-11-20T10:36:14;4.13;;;1.40;;
72524;SDS011;60547;48.502;8.996;2022-11-20T10:38:53;3.80;;;1.40;;
72524;SDS011;60547;48.502;8.996;2022-11-20T10:41:23;3.22;;;1.58;;
72524;SDS011;60547;48.502;8.996;2022-11-20T10:46:29;3.63;;;1.58;;
72524;SDS011;60547;48.502;8.996;2022-11-20T10:49:11;3.88;;;1.40;;
72524;SDS011;60547;48.502;8.996;2022-11-20T10:51:43;3.90;;;1.90;;
72524;SDS011;60547;48.502;8.996;2022-11-20T10:56:46;2.90;;;1.35;;
72524;SDS011;60547;48.502;8.996;2022-11-20T11:07:58;2.67;;;1.42;;
72524;SDS011;60547;48.502;8.996;2022-11-20T11:10:26;3.80;;;1.67;;
72524;SDS011;60547;48.502;8.996;2022-11-20T11:13:01;3.70;;;1.52;;
72524;SDS011;60547;48.502;8.996;2022-11-20T11:15:27;3.33;;;1.48;;
72524;SDS011;60547;48.502;8.996;2022-11-20T11:17:54;3.58;;;1.50;;
72524;SDS011;60547;48.502;8.996;2022-11-20T11:20:20;5.50;;;1.65;;
72524;SDS011;60547;48.502;8.996;2022-11-20T11:22:52;3.60;;;1.60;;
72524;SDS011;60547;48.502;8.996;2022-11-20T11:25:32;3.25;;;1.08;;
72524;SDS011;60547;48.502;8.996;2022-11-20T11:30:56;4.22;;;1.50;;
72524;SDS011;60547;48.502;8.996;2022-11-20T11:33:23;2.80;;;1.30;;
72524;SDS011;60547;48.502;8.996;2022-11-20T11:35:55;3.65;;;1.45;;
72524;SDS011;60547;48.502;8.996;2022-11-20T11:38:41;2.95;;;1.40;;
72524;SDS011;60547;48.502;8.996;2022-11-20T11:41:19;4.32;;;2.00;;
72524;SDS011;60547;48.502;8.996;2022-11-20T11:43:51;3.20;;;1.30;;
72524;SDS011;60547;48.502;8.996;2022-11-20T11:46:49;4.60;;;1.20;;
72524;SDS011;60547;48.502;8.996;2022-11-20T11:49:18;2.83;;;1.30;;
72524;SDS011;60547;48.502;8.996;2022-11-20T11:54:29;3.13;;;1.05;;
72524;SDS011;60547;48.502;8.996;2022-11-20T12:00:18;2.67;;;1.00;;
72524;SDS011;60547;48.502;8.996;2022-11-20T12:02:49;3.30;;;1.35;;
72524;SDS011;60547;48.502;8.996;2022-11-20T12:10:54;3.45;;;1.52;;
72524;SDS011;60547;48.502;8.996;2022-11-20T12:15:58;1.75;;;1.13;;
72524;SDS011;60547;48.502;8.996;2022-11-20T12:18:24;3.53;;;1.10;;
72524;SDS011;60547;48.502;8.996;2022-11-20T12:23:47;2.28;;;1.02;;
72524;SDS011;60547;48.502;8.996;2022-11-20T12:45:02;3.30;;;1.00;;
72524;SDS011;60547;48.502;8.996;2022-11-20T12:50:31;2.80;;;1.00;;
72524;SDS011;60547;48.502;8.996;2022-11-20T12:53:27;1.17;;;0.70;;
72524;SDS011;60547;48.502;8.996;2022-11-20T12:56:17;1.80;;;0.90;;
72524;SDS011;60547;48.502;8.996;2022-11-20T13:07:00;3.75;;;1.00;;
72524;SDS011;60547;48.502;8.996;2022-11-20T13:09:27;2.42;;;0.90;;
72524;SDS011;60547;48.502;8.996;2022-11-20T13:19:56;2.55;;;1.00;;
72524;SDS011;60547;48.502;8.996;2022-11-20T13:22:26;2.33;;;0.90;;
72524;SDS011;60547;48.502;8.996;2022-11-20T13:24:53;3.40;;;1.30;;
72524;SDS011;60547;48.502;8.996;2022-11-20T13:27:20;2.33;;;1.40;;
72524;SDS011;60547;48.502;8.996;2022-11-20T13:33:09;2.25;;;1.13;;
72524;SDS011;60547;48.502;8.996;2022-11-20T13:36:00;2.65;;;1.10;;
72524;SDS011;60547;48.502;8.996;2022-11-20T13:38:28;4.15;;;1.65;;
72524;SDS011;60547;48.502;8.996;2022-11-20T13:41:07;3.05;;;1.17;;
72524;SDS011;60547;48.502;8.996;2022-11-20T13:43:51;4.38;;;1.40;;
72524;SDS011;60547;48.502;8.996;2022-11-20T13:46:17;3.25;;;1.70;;
72524;SDS011;60547;48.502;8.996;2022-11-20T13:48:49;2.92;;;1.30;;
72524;SDS011;60547;48.502;8.996;2022-11-20T13:51:28;4.18;;;1.73;;
72524;SDS011;60547;48.502;8.996;2022-11-20T14:02:01;3.50;;;1.80;;
72524;SDS011;60547;48.502;8.996;2022-11-20T14:04:27;4.85;;;1.70;;
72524;SDS011;60547;48.502;8.996;2022-11-20T14:06:55;4.22;;;1.70;;
72524;SDS011;60547;48.502;8.996;2022-11-20T14:09:28;4.60;;;1.80;;
72524;SDS011;60547;48.502;8.996;2022-11-20T14:11:55;7.43;;;4.45;;
72524;SDS011;60547;48.502;8.996;2022-11-20T14:14:32;9.75;;;4.25;;
72524;SDS011;60547;48.502;8.996;2022-11-20T14:17:32;10.98;;;5.45;;
72524;SDS011;60547;48.502;8.996;2022-11-20T14:20:01;5.80;;;2.97;;
72524;SDS011;60547;48.502;8.996;2022-11-20T14:22:29;6.63;;;3.67;;
72524;SDS011;60547;48.502;8.996;2022-11-20T14:25:04;6.57;;;3.97;;
72524;SDS011;60547;48.502;8.996;2022-11-20T14:27:32;5.00;;;2.88;;
72524;SDS011;60547;48.502;8.996;2022-11-20T14:30:00;5.20;;;2.70;;
72524;SDS011;60547;48.502;8.996;2022-11-20T14:32:26;7.88;;;4.18;;
72524;SDS011;60547;48.502;8.996;2022-11-20T14:34:54;5.43;;;2.65;;
72524;SDS011;60547;48.502;8.996;2022-11-20T14:37:26;5.80;;;3.53;;
72524;SDS011;60547;48.502;8.996;2022-11-20T14:39:58;5.60;;;2.92;;
72524;SDS011;60547;48.502;8.996;2022-11-20T14:42:27;4.78;;;2.25;;
72524;SDS011;60547;48.502;8.996;2022-11-20T14:44:59;5.30;;;2.28;;
72524;SDS011;60547;48.502;8.996;2022-11-20T14:47:29;5.00;;;2.50;;
72524;SDS011;60547;48.502;8.996;2022-11-20T14:49:56;6.60;;;3.30;;
72524;SDS011;60547;48.502;8.996;2022-11-20T14:52:24;5.00;;;2.55;;
72524;SDS011;60547;48.502;8.996;2022-11-20T14:54:52;6.38;;;4.10;;
72524;SDS011;60547;48.502;8.996;2022-11-20T14:57:29;5.93;;;3.42;;
72524;SDS011;60547;48.502;8.996;2022-11-20T15:02:46;5.90;;;3.35;;
72524;SDS011;60547;48.502;8.996;2022-11-20T15:05:13;5.45;;;3.00;;
72524;SDS011;60547;48.502;8.996;2022-11-20T15:07:41;5.55;;;2.67;;
72524;SDS011;60547;48.502;8.996;2022-11-20T15:10:24;4.35;;;2.20;;
72524;SDS011;60547;48.502;8.996;2022-11-20T15:12:55;4.70;;;2.20;;
72524;SDS011;60547;48.502;8.996;2022-11-20T15:18:12;3.90;;;2.15;;
72524;SDS011;60547;48.502;8.996;2022-11-20T15:20:40;3.33;;;1.70;;
72524;SDS011;60547;48.502;8.996;2022-11-20T15:23:13;2.83;;;1.40;;
72524;SDS011;60547;48.502;8.996;2022-11-20T15:25:40;3.22;;;1.65;;
72524;SDS011;60547;48.502;8.996;2022-11-20T15:28:14;4.15;;;2.00;;
72524;SDS011;60547;48.502;8.996;2022-11-20T15:30:43;6.03;;;2.90;;
72524;SDS011;60547;48.502;8.996;2022-11-20T15:33:09;5.57;;;2.97;;
72524;SDS011;60547;48.502;8.996;2022-11-20T15:35:35;6.72;;;3.63;;
72524;SDS011;60547;48.502;8.996;2022-11-20T15:38:00;5.90;;;3.63;;
72524;SDS011;60547;48.502;8.996;2022-11-20T15:40:26;4.32;;;2.35;;
72524;SDS011;60547;48.502;8.996;2022-11-20T15:42:51;4.80;;;2.60;;
72524;SDS011;60547;48.502;8.996;2022-11-20T15:45:38;4.13;;;2.47;;
72524;SDS011;60547;48.502;8.996;2022-11-20T15:48:11;5.07;;;2.55;;
72524;SDS011;60547;48.502;8.996;2022-11-20T15:53:26;8.93;;;4.15;;
72524;SDS011;60547;48.502;8.996;2022-11-20T15:55:52;7.05;;;4.38;;
72524;SDS011;60547;48.502;8.996;2022-11-20T15:58:18;8.40;;;4.43;;
72524;SDS011;60547;48.502;8.996;2022-11-20T16:00:43;10.65;;;5.57;;
72524;SDS011;60547;48.502;8.996;2022-11-20T16:03:13;61.97;;;22.80;;
72524;SDS011;60547;48.502;8.996;2022-11-20T16:05:39;105.82;;;39.28;;
72524;SDS011;60547;48.502;8.996;2022-11-20T16:08:05;113.43;;;46.15;;
72524;SDS011;60547;48.502;8.996;2022-11-20T16:10:31;89.43;;;37.50;;
72524;SDS011;60547;48.502;8.996;2022-11-20T16:12:56;59.33;;;26.33;;
72524;SDS011;60547;48.502;8.996;2022-11-20T16:15:40;36.70;;;17.33;;
72524;SDS011;60547;48.502;8.996;2022-11-20T16:18:13;32.22;;;18.08;;
72524;SDS011;60547;48.502;8.996;2022-11-20T16:20:40;25.77;;;12.10;;
72524;SDS011;60547;48.502;8.996;2022-11-20T16:23:06;11.95;;;5.72;;
72524;SDS011;60547;48.502;8.996;2022-11-20T16:25:32;7.15;;;4.53;;
72524;SDS011;60547;48.502;8.996;2022-11-20T16:27:58;8.43;;;4.53;;
72524;SDS011;60547;48.502;8.996;2022-11-20T16:30:24;19.90;;;11.52;;
72524;SDS011;60547;48.502;8.996;2022-11-20T16:32:50;20.52;;;11.23;;
72524;SDS011;60547;48.502;8.996;2022-11-20T16:35:15;23.73;;;14.43;;
72524;SDS011;60547;48.502;8.996;2022-11-20T16:37:41;9.32;;;5.35;;
72524;SDS011;60547;48.502;8.996;2022-11-20T16:40:08;6.85;;;4.13;;
72524;SDS011;60547;48.502;8.996;2022-11-20T16:42:34;9.13;;;4.82;;
72524;SDS011;60547;48.502;8.996;2022-11-20T16:45:00;11.07;;;5.45;;
72524;SDS011;60547;48.502;8.996;2022-11-20T16:47:26;13.98;;;6.60;;
72524;SDS011;60547;48.502;8.996;2022-11-20T16:49:51;16.63;;;8.98;;
72524;SDS011;60547;48.502;8.996;2022-11-20T16:52:17;16.15;;;7.70;;
72524;SDS011;60547;48.502;8.996;2022-11-20T16:54:44;7.30;;;4.13;;
72524;SDS011;60547;48.502;8.996;2022-11-20T16:57:10;10.13;;;5.20;;
72524;SDS011;60547;48.502;8.996;2022-11-20T16:59:35;13.68;;;7.85;;
72524;SDS011;60547;48.502;8.996;2022-11-20T17:02:00;13.13;;;9.85;;
72524;SDS011;60547;48.502;8.996;2022-11-20T17:04:26;13.52;;;9.98;;
72524;SDS011;60547;48.502;8.996;2022-11-20T17:06:51;13.60;;;9.52;;
72524;SDS011;60547;48.502;8.996;2022-11-20T17:09:17;12.25;;;8.10;;